首页
METAR-TAF:

METAR-TAF

机场 :

图勒空军基地

图勒, 格陵兰

纬度: 76-32N, 经度: 068-42W, 海拔: 77米

当前天气观测

该预报发布于35分钟前的00:56 UTC
风速11节,风向东转东南
温度 -5°C
湿度 68%
气压 1004 hPa
能见度10公里或以上
阴天层高于6500英尺

METAR: BGTL 260056Z AUTO 11011KT 9999 OVC065 M05/M10 A2966 RMK AO2 SLPNO T10511097 TSNO $

时间: 22:31 (01:31 UTC)

预报

该预报发布于31分钟前的01:00 UTC
预报有效从26日的 01点(UTC)到 27日的 07点(UTC)
风速6节,风向东转东南
能见度10公里或以上
阴天层高于5000英尺
成为
从 26日的 03点(UTC)到 26日的 04点(UTC)
风速6节,风向东转东南
能見度: 9000
多云层高于3000英尺
小雪
成为
从 26日的 10点(UTC)到 26日的 11点(UTC)
风速15节,风向东转东南,有时为25节阵风
能见度10公里或以上
散云层高于3000英尺
多云层高于5000英尺
成为
从 26日的 14点(UTC)到 26日的 15点(UTC)
风速15节,风向东转东南,有时为30节阵风
能見度: 6000
多云层高于3000英尺
小雪, 低吹雪
成为
从 27日的 03点(UTC)到 27日的 04点(UTC)
风速30节,风向东转东南,有时为40节阵风
能见度10公里或以上
多云层高于3000英尺
低吹雪

TAF: BGTL 260100Z 2601/2707 12006KT 9999 OVC050 QNH2960INS BECMG 2603/2604 12006KT 9000 -SN BKN030 620309 QNH2973INS BECMG 2610/2611 12015G25KT 9999 NSW SCT030 BKN050 QNH2966INS BECMG 2614/2615 12015G30KT 6000 -SN DRSN BKN030 620309 520008 QNH2960INS BECMG 2703/2704 12030G40KT 9999 DRSN BKN030 620309 530008 QNH2960INS TXM03/2620Z TNM09/2602Z

超过4000个机场的气象观测和天气预报(METAR&TAF报告)。

可查询的气象台以黄色和红色小点在地图上表示。

将鼠标移到小点上方,可查看气象台名称。

然后点击查看天气观测和预报。

如需切换地图:点击带黑十字的绿色按钮放大地图;点击带横线的绿色按钮缩小地图;或者点击绿色箭头查看邻近地区的地图。


METAR-TAF: